Butler, Alabama
Current Conditions -  °F | °C
As of 5:55 PM on Sunday 23 Nov 2014 (Local Time) from KDYA Reporting Station
Clear Clear  
Wind Chill: 63°   Ceiling: Unl
Heat Index: 63°   Visibility: 10mi
Dew Point: 58°   Wind: 7mph
Humidity: 84%   Direction: 150°SSE
Pressure: 29.61"   Gusts: NA
Location:  32.09°N, 88.22°W
Report Text: KDYA 232355Z AUTO 15006KT 10SM CLR 17/15 A2961 RMK AO2 T01730146 10205 20173
Loading
Personal Weather Stations






























Interactive Weather Map New forecast layout! Learn more

10-Day Weather Forecast

Advertisements
Track Severe Weather on mobile